createdAt,value
2022-11-09T00:00:43.050Z,6.40
2022-11-09T00:03:10.619Z,5.90
2022-11-09T00:05:37.823Z,5.90
2022-11-09T00:08:11.763Z,5.80
2022-11-09T00:10:39.068Z,5.57
2022-11-09T00:13:06.189Z,5.87
2022-11-09T00:15:33.279Z,6.03
2022-11-09T00:18:03.406Z,5.70
2022-11-09T00:20:30.728Z,5.50
2022-11-09T00:22:57.948Z,6.40
2022-11-09T00:25:25.082Z,6.07
2022-11-09T00:27:52.206Z,5.43
2022-11-09T00:30:19.282Z,6.00
2022-11-09T00:32:46.397Z,6.13
2022-11-09T00:35:13.656Z,6.30
2022-11-09T00:37:40.949Z,6.63
2022-11-09T00:40:08.730Z,6.43
2022-11-09T00:42:35.795Z,6.30
2022-11-09T00:45:02.900Z,6.40
2022-11-09T00:47:29.947Z,6.70
2022-11-09T00:49:57.110Z,6.33
2022-11-09T00:52:24.229Z,6.50
2022-11-09T00:54:51.303Z,5.97
2022-11-09T00:57:18.404Z,6.70
2022-11-09T00:59:45.603Z,6.53
2022-11-09T01:02:12.717Z,6.80
2022-11-09T01:04:39.862Z,6.50
2022-11-09T01:07:08.089Z,6.77
2022-11-09T01:09:35.481Z,6.73
2022-11-09T01:12:02.549Z,6.70
2022-11-09T01:14:29.731Z,6.57
2022-11-09T01:16:56.848Z,6.17
2022-11-09T01:19:23.940Z,6.00
2022-11-09T01:21:51.045Z,6.27
2022-11-09T01:24:18.134Z,5.90
2022-11-09T01:26:45.193Z,5.80
2022-11-09T01:29:12.340Z,6.80
2022-11-09T01:31:39.446Z,6.40
2022-11-09T01:34:06.512Z,5.77
2022-11-09T01:36:33.649Z,5.97
2022-11-09T01:39:01.012Z,6.03
2022-11-09T01:41:29.252Z,6.30
2022-11-09T01:44:03.540Z,5.30
2022-11-09T01:46:49.585Z,4.10
2022-11-09T01:49:32.983Z,4.43
2022-11-09T01:52:02.858Z,3.50
2022-11-09T01:54:32.267Z,3.80
2022-11-09T01:57:01.686Z,3.33
2022-11-09T01:59:34.198Z,3.70
2022-11-09T02:02:01.557Z,3.40
2022-11-09T02:04:41.337Z,3.50
2022-11-09T02:07:08.764Z,3.50
2022-11-09T02:10:05.271Z,3.47
2022-11-09T02:12:34.570Z,3.47
2022-11-09T02:15:03.316Z,3.77
2022-11-09T02:17:30.523Z,3.73
2022-11-09T02:19:58.896Z,3.50
2022-11-09T02:22:26.332Z,4.00
2022-11-09T02:24:56.362Z,3.70
2022-11-09T02:27:23.961Z,3.70
2022-11-09T02:29:51.041Z,3.93
2022-11-09T02:32:20.671Z,3.70
2022-11-09T02:34:47.799Z,3.83
2022-11-09T02:37:24.932Z,4.43
2022-11-09T02:39:52.019Z,4.07
2022-11-09T02:42:21.593Z,4.10
2022-11-09T02:44:52.359Z,4.20
2022-11-09T02:47:19.449Z,4.43
2022-11-09T02:49:46.598Z,4.10
2022-11-09T02:52:13.686Z,3.87
2022-11-09T02:54:40.789Z,4.57
2022-11-09T02:57:07.867Z,4.10
2022-11-09T02:59:34.989Z,4.30
2022-11-09T03:02:02.116Z,4.03
2022-11-09T03:04:29.219Z,4.30
2022-11-09T03:06:56.394Z,4.20
2022-11-09T03:09:23.602Z,4.63
2022-11-09T03:11:50.775Z,4.53
2022-11-09T03:14:18.344Z,4.40
2022-11-09T03:16:50.278Z,4.93
2022-11-09T03:19:17.955Z,4.90
2022-11-09T03:21:45.041Z,4.83
2022-11-09T03:24:12.167Z,5.17
2022-11-09T03:26:39.246Z,4.80
2022-11-09T03:29:06.316Z,5.00
2022-11-09T03:31:33.390Z,4.87
2022-11-09T03:34:00.469Z,5.47
2022-11-09T03:36:27.535Z,5.40
2022-11-09T03:38:54.617Z,5.10
2022-11-09T03:41:21.706Z,5.50
2022-11-09T03:43:48.820Z,5.33
2022-11-09T03:46:15.882Z,5.07
2022-11-09T03:48:42.986Z,5.20
2022-11-09T03:51:10.020Z,5.50
2022-11-09T03:53:37.066Z,5.90
2022-11-09T03:56:04.239Z,6.30
2022-11-09T03:58:31.807Z,6.00
2022-11-09T04:00:58.912Z,6.00
2022-11-09T04:03:25.983Z,5.87
2022-11-09T04:05:53.054Z,5.70
2022-11-09T04:08:20.125Z,5.77
2022-11-09T04:10:47.225Z,5.87
2022-11-09T04:13:14.312Z,6.27
2022-11-09T04:15:41.387Z,6.57
2022-11-09T04:18:10.940Z,6.67
2022-11-09T04:20:38.059Z,6.73
2022-11-09T04:23:05.963Z,6.70
2022-11-09T04:25:34.047Z,6.40
2022-11-09T04:28:02.107Z,6.60
2022-11-09T04:30:31.639Z,7.53
2022-11-09T04:32:59.261Z,7.47
2022-11-09T04:35:27.007Z,6.83
2022-11-09T04:37:57.771Z,6.83
2022-11-09T04:40:25.463Z,7.07
2022-11-09T04:42:52.559Z,7.00
2022-11-09T04:45:20.435Z,7.17
2022-11-09T04:47:47.564Z,7.07
2022-11-09T04:50:14.761Z,7.70
2022-11-09T04:52:41.836Z,8.13
2022-11-09T04:55:09.025Z,8.33
2022-11-09T04:57:36.185Z,8.03
2022-11-09T05:00:03.855Z,8.27
2022-11-09T05:02:30.911Z,7.37
2022-11-09T05:04:58.008Z,7.90
2022-11-09T05:07:25.177Z,8.00
2022-11-09T05:09:52.233Z,7.77
2022-11-09T05:12:19.321Z,7.63
2022-11-09T05:14:46.418Z,8.43
2022-11-09T05:17:13.559Z,8.53
2022-11-09T05:19:40.645Z,8.90
2022-11-09T05:22:26.657Z,8.40
2022-11-09T05:24:53.800Z,8.60
2022-11-09T05:27:20.976Z,8.07
2022-11-09T05:29:48.104Z,7.13
2022-11-09T05:32:15.190Z,8.50
2022-11-09T05:34:42.269Z,7.83
2022-11-09T05:37:09.350Z,9.20
2022-11-09T05:39:36.451Z,8.17
2022-11-09T05:42:03.590Z,7.97
2022-11-09T05:44:30.743Z,7.83
2022-11-09T05:46:57.841Z,8.23
2022-11-09T05:49:24.895Z,7.93
2022-11-09T05:51:51.988Z,7.97
2022-11-09T05:54:19.069Z,9.77
2022-11-09T05:56:46.399Z,10.13
2022-11-09T05:59:13.471Z,10.23
2022-11-09T06:01:40.579Z,10.20
2022-11-09T06:04:07.720Z,10.27
2022-11-09T06:06:34.845Z,10.53
2022-11-09T06:09:01.929Z,11.30
2022-11-09T06:11:29.180Z,11.27
2022-11-09T06:13:56.314Z,11.93
2022-11-09T06:16:23.442Z,13.07
2022-11-09T06:18:50.776Z,13.90
2022-11-09T06:21:18.238Z,13.90
2022-11-09T06:23:45.542Z,13.03
2022-11-09T06:26:13.057Z,11.00
2022-11-09T06:28:40.907Z,10.63
2022-11-09T06:31:08.701Z,11.17
2022-11-09T06:33:36.486Z,11.77
2022-11-09T06:36:04.031Z,12.10
2022-11-09T06:38:31.453Z,12.03
2022-11-09T06:40:59.455Z,12.00
2022-11-09T06:43:26.610Z,12.17
2022-11-09T06:45:54.002Z,12.60
2022-11-09T06:48:21.481Z,11.97
2022-11-09T06:50:48.545Z,12.50
2022-11-09T06:53:16.589Z,11.77
2022-11-09T06:55:49.093Z,12.07
2022-11-09T06:58:17.909Z,11.50
2022-11-09T07:00:45.284Z,12.13
2022-11-09T07:03:16.022Z,11.67
2022-11-09T07:05:43.240Z,12.33
2022-11-09T07:08:10.387Z,12.43
2022-11-09T07:10:37.905Z,13.13
2022-11-09T07:13:05.438Z,13.03
2022-11-09T07:15:32.886Z,13.23
2022-11-09T07:18:00.649Z,12.83
2022-11-09T07:20:27.932Z,12.83
2022-11-09T07:22:55.488Z,12.43
2022-11-09T07:25:22.852Z,14.10
2022-11-09T07:27:49.989Z,14.30
2022-11-09T07:30:17.326Z,13.37
2022-11-09T07:33:08.123Z,12.83
2022-11-09T07:35:31.537Z,10.83
2022-11-09T07:38:02.298Z,10.47
2022-11-09T07:40:29.742Z,9.60
2022-11-09T07:43:00.698Z,9.43
2022-11-09T07:45:29.060Z,8.10
2022-11-09T07:47:59.825Z,7.97
2022-11-09T07:50:27.817Z,7.43
2022-11-09T07:52:58.541Z,7.80
2022-11-09T07:55:26.169Z,6.77
2022-11-09T07:58:03.969Z,6.83
2022-11-09T08:00:32.050Z,5.97
2022-11-09T08:02:59.208Z,5.97
2022-11-09T08:05:26.512Z,5.67
2022-11-09T08:07:57.458Z,5.67
2022-11-09T08:10:25.397Z,4.87
2022-11-09T08:13:02.900Z,5.13
2022-11-09T08:15:30.383Z,4.47
2022-11-09T08:18:01.754Z,5.23
2022-11-09T08:20:29.389Z,4.40
2022-11-09T08:23:01.024Z,4.60
2022-11-09T08:25:31.005Z,4.10
2022-11-09T08:27:58.228Z,4.17
2022-11-09T08:30:25.650Z,3.60
2022-11-09T08:32:53.095Z,3.80
2022-11-09T08:35:21.355Z,3.43
2022-11-09T08:37:49.719Z,3.40
2022-11-09T08:40:17.953Z,3.43
2022-11-09T08:42:45.176Z,2.90
2022-11-09T08:45:12.383Z,2.73
2022-11-09T08:47:40.071Z,3.03
2022-11-09T08:50:08.096Z,2.90
2022-11-09T08:52:35.532Z,3.30
2022-11-09T08:55:02.962Z,3.23
2022-11-09T08:57:30.165Z,3.30
2022-11-09T08:59:57.300Z,3.40
2022-11-09T09:02:24.473Z,2.90
2022-11-09T09:04:51.570Z,3.33
2022-11-09T09:07:18.790Z,3.97
2022-11-09T09:09:45.923Z,8.23
2022-11-09T09:12:13.012Z,5.53
2022-11-09T09:14:40.083Z,3.20
2022-11-09T09:17:07.174Z,4.67
2022-11-09T09:19:34.817Z,4.30
2022-11-09T09:22:02.615Z,3.80
2022-11-09T09:24:29.800Z,2.40
2022-11-09T09:26:56.878Z,2.60
2022-11-09T09:29:24.200Z,2.87
2022-11-09T09:31:51.292Z,2.57
2022-11-09T09:34:18.480Z,1.80
2022-11-09T09:36:48.282Z,2.00
2022-11-09T09:39:15.801Z,2.27
2022-11-09T09:42:03.194Z,1.90
2022-11-09T09:44:37.724Z,1.73
2022-11-09T09:47:16.693Z,1.90
2022-11-09T09:49:55.829Z,1.83
2022-11-09T09:52:22.947Z,2.10
2022-11-09T09:54:53.993Z,1.80
2022-11-09T09:57:22.156Z,1.90
2022-11-09T09:59:51.263Z,1.50
2022-11-09T10:02:25.423Z,1.90
2022-11-09T10:04:53.204Z,1.80
2022-11-09T10:07:43.308Z,1.87
2022-11-09T10:10:29.122Z,1.93
2022-11-09T10:13:11.512Z,1.60
2022-11-09T10:15:38.698Z,1.70
2022-11-09T10:18:08.958Z,1.60
2022-11-09T10:20:36.295Z,1.53
2022-11-09T10:23:03.381Z,1.30
2022-11-09T10:25:57.728Z,1.50
2022-11-09T10:28:20.990Z,1.47
2022-11-09T10:30:48.188Z,1.50
2022-11-09T10:33:18.219Z,1.40
2022-11-09T10:35:47.618Z,1.50
2022-11-09T10:38:16.501Z,1.50
2022-11-09T10:40:51.705Z,1.47
2022-11-09T10:43:18.806Z,1.40
2022-11-09T10:45:47.388Z,1.00
2022-11-09T10:48:15.084Z,1.20
2022-11-09T10:50:49.482Z,1.53
2022-11-09T10:53:18.322Z,1.20
2022-11-09T10:55:58.633Z,1.20
2022-11-09T10:58:39.725Z,1.10
2022-11-09T11:01:18.123Z,1.20
2022-11-09T11:03:45.900Z,1.13
2022-11-09T11:06:12.924Z,1.10
2022-11-09T11:08:41.266Z,1.10
2022-11-09T11:11:39.100Z,1.33
2022-11-09T11:14:19.887Z,1.00
2022-11-09T11:16:50.952Z,1.10
2022-11-09T11:19:29.435Z,0.80
2022-11-09T11:22:11.662Z,1.23
2022-11-09T11:24:43.142Z,1.25
2022-11-09T11:27:24.951Z,0.90
2022-11-09T11:29:54.821Z,1.00
2022-11-09T11:32:22.195Z,1.00
2022-11-09T11:35:04.721Z,0.90
2022-11-09T11:37:35.421Z,0.93
2022-11-09T11:40:08.244Z,1.00
2022-11-09T11:42:52.998Z,0.80
2022-11-09T11:45:39.991Z,0.90
2022-11-09T11:48:14.396Z,1.00
2022-11-09T11:50:50.499Z,0.80
2022-11-09T11:53:26.968Z,0.90
2022-11-09T11:55:54.074Z,0.77
2022-11-09T11:58:33.536Z,1.07
2022-11-09T12:01:16.193Z,0.90
2022-11-09T12:03:51.803Z,0.97
2022-11-09T12:06:24.768Z,1.10
2022-11-09T12:09:24.409Z,1.00
2022-11-09T12:12:05.639Z,1.00
2022-11-09T12:14:51.224Z,1.00
2022-11-09T12:17:24.688Z,1.20
2022-11-09T12:20:04.633Z,1.20
2022-11-09T12:22:44.360Z,1.07
2022-11-09T12:25:21.226Z,1.00
2022-11-09T12:28:00.465Z,1.10
2022-11-09T12:30:46.030Z,1.00
2022-11-09T12:33:20.317Z,1.20
2022-11-09T12:35:59.521Z,1.10
2022-11-09T12:38:26.612Z,1.17
2022-11-09T12:41:02.113Z,1.10
2022-11-09T12:43:50.822Z,1.10
2022-11-09T12:46:19.598Z,1.20
2022-11-09T12:48:47.565Z,1.30
2022-11-09T12:51:15.493Z,1.20
2022-11-09T12:53:42.561Z,1.30
2022-11-09T12:56:15.179Z,1.20
2022-11-09T12:58:42.248Z,1.30
2022-11-09T13:01:13.802Z,1.50
2022-11-09T13:03:52.764Z,1.30
2022-11-09T13:06:19.916Z,1.10
2022-11-09T13:08:56.603Z,1.27
2022-11-09T13:11:23.676Z,1.40
2022-11-09T13:13:50.750Z,1.43
2022-11-09T13:16:20.587Z,1.10
2022-11-09T13:18:51.224Z,1.47
2022-11-09T13:21:24.505Z,1.30
2022-11-09T13:24:02.338Z,1.60
2022-11-09T13:26:33.734Z,1.20
2022-11-09T13:29:16.894Z,1.10
2022-11-09T13:32:02.680Z,1.53
2022-11-09T13:34:49.608Z,1.50
2022-11-09T13:37:36.939Z,1.50
2022-11-09T13:40:22.711Z,1.60
2022-11-09T13:43:01.410Z,1.47
2022-11-09T13:45:28.452Z,1.60
2022-11-09T13:47:56.167Z,1.40
2022-11-09T13:50:24.566Z,1.80
2022-11-09T13:52:56.917Z,1.30
2022-11-09T13:55:31.151Z,1.60
2022-11-09T13:58:00.380Z,1.70
2022-11-09T14:00:27.598Z,1.40
2022-11-09T14:02:59.379Z,1.40
2022-11-09T14:05:27.616Z,1.50
2022-11-09T14:07:55.921Z,1.40
2022-11-09T14:10:32.136Z,1.60
2022-11-09T14:13:05.357Z,1.50
2022-11-09T14:15:50.847Z,1.40
2022-11-09T14:18:28.370Z,1.67
2022-11-09T14:21:04.334Z,1.63
2022-11-09T14:23:32.766Z,1.60
2022-11-09T14:26:06.729Z,1.70
2022-11-09T14:28:34.836Z,1.80
2022-11-09T14:31:02.628Z,1.40
2022-11-09T14:33:30.989Z,1.53
2022-11-09T14:35:58.575Z,1.80
2022-11-09T14:38:27.217Z,1.90
2022-11-09T14:40:54.556Z,1.60
2022-11-09T14:43:25.630Z,1.90
2022-11-09T14:45:57.843Z,2.10
2022-11-09T14:48:25.432Z,1.80
2022-11-09T14:50:53.905Z,1.87
2022-11-09T14:53:25.379Z,2.03
2022-11-09T14:55:53.213Z,2.60
2022-11-09T14:58:21.959Z,2.70
2022-11-09T15:01:09.566Z,2.50
2022-11-09T15:03:36.743Z,2.50
2022-11-09T15:06:05.708Z,2.43
2022-11-09T15:08:32.934Z,2.33
2022-11-09T15:11:00.158Z,2.57
2022-11-09T15:13:38.150Z,3.13
2022-11-09T15:16:05.842Z,3.63
2022-11-09T15:18:35.105Z,2.50
2022-11-09T15:21:12.101Z,2.70
2022-11-09T15:23:43.863Z,2.70
2022-11-09T15:26:26.307Z,2.80
2022-11-09T15:28:53.464Z,2.60
2022-11-09T15:31:22.639Z,2.80
2022-11-09T15:33:52.325Z,2.60
2022-11-09T15:36:24.995Z,2.57
2022-11-09T15:39:03.439Z,2.23
2022-11-09T15:41:31.653Z,2.87
2022-11-09T15:43:59.111Z,2.37
2022-11-09T15:46:28.341Z,2.67
2022-11-09T15:48:57.430Z,2.47
2022-11-09T15:51:24.540Z,2.53
2022-11-09T15:53:51.667Z,2.70
2022-11-09T15:56:23.273Z,2.80
2022-11-09T15:58:52.412Z,2.90
2022-11-09T16:01:19.792Z,3.10
2022-11-09T16:03:46.956Z,3.20
2022-11-09T16:06:17.676Z,3.20
2022-11-09T16:08:44.771Z,2.90
2022-11-09T16:11:11.814Z,3.03
2022-11-09T16:13:38.927Z,3.10
2022-11-09T16:16:07.151Z,3.30
2022-11-09T16:18:34.351Z,3.50
2022-11-09T16:21:08.418Z,4.00
2022-11-09T16:23:35.621Z,3.90
2022-11-09T16:26:06.890Z,7.43
2022-11-09T16:28:34.055Z,3.70
2022-11-09T16:31:01.183Z,2.77
2022-11-09T16:33:28.542Z,3.30
2022-11-09T16:35:57.439Z,3.00
2022-11-09T16:38:24.547Z,2.50
2022-11-09T16:40:51.749Z,2.40
2022-11-09T16:43:18.897Z,2.60
2022-11-09T16:45:48.246Z,2.50
2022-11-09T16:48:16.209Z,2.63
2022-11-09T16:50:43.672Z,2.60
2022-11-09T16:53:10.868Z,2.43
2022-11-09T16:55:38.018Z,3.00
2022-11-09T16:58:05.108Z,2.40
2022-11-09T17:00:55.728Z,2.67
2022-11-09T17:03:19.404Z,2.67
2022-11-09T17:05:46.593Z,2.70
2022-11-09T17:08:13.968Z,2.70
2022-11-09T17:10:45.275Z,2.80
2022-11-09T17:13:13.319Z,2.70
2022-11-09T17:15:44.473Z,2.97
2022-11-09T17:18:11.671Z,2.80
2022-11-09T17:20:45.720Z,2.73
2022-11-09T17:23:13.567Z,2.83
2022-11-09T17:25:40.845Z,2.50
2022-11-09T17:28:07.923Z,2.33
2022-11-09T17:30:35.615Z,2.70
2022-11-09T17:33:02.718Z,2.77
2022-11-09T17:35:30.976Z,2.70
2022-11-09T17:37:58.279Z,2.73
2022-11-09T17:40:25.523Z,2.57
2022-11-09T17:42:52.667Z,2.70
2022-11-09T17:45:19.740Z,2.70
2022-11-09T17:47:46.978Z,2.70
2022-11-09T17:50:14.076Z,2.70
2022-11-09T17:52:42.285Z,2.90
2022-11-09T17:55:09.428Z,2.47
2022-11-09T17:57:36.592Z,2.70
2022-11-09T18:00:04.664Z,2.60
2022-11-09T18:02:32.068Z,2.60
2022-11-09T18:04:59.502Z,2.80
2022-11-09T18:07:26.717Z,2.80
2022-11-09T18:09:53.783Z,2.60
2022-11-09T18:12:20.863Z,2.70
2022-11-09T18:14:48.043Z,2.60
2022-11-09T18:17:15.220Z,2.80
2022-11-09T18:19:42.363Z,2.20
2022-11-09T18:22:12.673Z,2.83
2022-11-09T18:24:40.112Z,3.07
2022-11-09T18:27:07.274Z,3.17
2022-11-09T18:29:34.415Z,3.70
2022-11-09T18:32:01.513Z,2.70
2022-11-09T18:34:28.670Z,2.90
2022-11-09T18:36:55.793Z,2.40
2022-11-09T18:39:25.864Z,2.50
2022-11-09T18:41:54.442Z,2.40
2022-11-09T18:44:21.532Z,2.40
2022-11-09T18:46:48.677Z,2.50
2022-11-09T18:49:17.851Z,2.60
2022-11-09T18:51:45.034Z,2.60
2022-11-09T18:54:12.104Z,2.53
2022-11-09T18:56:39.296Z,2.97
2022-11-09T18:59:06.385Z,2.37
2022-11-09T19:01:33.537Z,2.50
2022-11-09T19:04:01.852Z,2.67
2022-11-09T19:06:29.101Z,2.30
2022-11-09T19:09:14.822Z,2.27
2022-11-09T19:11:41.972Z,2.20
2022-11-09T19:14:10.234Z,2.20
2022-11-09T19:16:37.389Z,2.07
2022-11-09T19:19:04.516Z,2.10
2022-11-09T19:21:39.922Z,2.50
2022-11-09T19:24:07.931Z,2.93
2022-11-09T19:26:35.755Z,2.90
2022-11-09T19:29:02.945Z,2.47
2022-11-09T19:31:30.344Z,2.50
2022-11-09T19:33:57.533Z,1.67
2022-11-09T19:36:31.076Z,2.00
2022-11-09T19:38:58.726Z,1.67
2022-11-09T19:41:26.148Z,1.90
2022-11-09T19:43:54.725Z,2.07
2022-11-09T19:46:22.036Z,1.90
2022-11-09T19:48:49.144Z,1.80
2022-11-09T19:51:16.977Z,1.67
2022-11-09T19:53:49.556Z,1.93
2022-11-09T19:56:16.729Z,1.50
2022-11-09T19:58:43.861Z,1.50
2022-11-09T20:01:12.181Z,1.50
2022-11-09T20:03:39.290Z,1.63
2022-11-09T20:06:06.987Z,1.53
2022-11-09T20:08:34.596Z,1.60
2022-11-09T20:11:08.774Z,1.53
2022-11-09T20:13:37.829Z,1.40
2022-11-09T20:16:09.119Z,1.83
2022-11-09T20:18:36.960Z,1.93
2022-11-09T20:21:06.634Z,1.57
2022-11-09T20:23:33.976Z,1.80
2022-11-09T20:26:05.146Z,1.67
2022-11-09T20:28:32.211Z,1.50
2022-11-09T20:30:59.292Z,1.80
2022-11-09T20:33:26.444Z,1.60
2022-11-09T20:35:54.154Z,1.40
2022-11-09T20:38:21.716Z,1.70
2022-11-09T20:40:56.009Z,1.53
2022-11-09T20:43:23.541Z,1.47
2022-11-09T20:45:50.985Z,2.00
2022-11-09T20:48:46.629Z,1.90
2022-11-09T20:51:09.384Z,2.27
2022-11-09T20:53:36.486Z,2.23
2022-11-09T20:56:03.590Z,2.40
2022-11-09T20:58:30.671Z,2.20
2022-11-09T21:01:02.070Z,2.27
2022-11-09T21:03:29.357Z,2.57
2022-11-09T21:05:59.122Z,2.80
2022-11-09T21:08:26.554Z,2.07
2022-11-09T21:10:53.713Z,2.47
2022-11-09T21:13:21.196Z,2.80
2022-11-09T21:15:48.318Z,2.90
2022-11-09T21:18:15.668Z,3.70
2022-11-09T21:20:42.774Z,3.80
2022-11-09T21:23:13.679Z,3.47
2022-11-09T21:26:00.314Z,2.80
2022-11-09T21:28:46.278Z,2.97
2022-11-09T21:31:13.891Z,2.73
2022-11-09T21:33:41.079Z,2.33
2022-11-09T21:36:08.960Z,2.40
2022-11-09T21:38:36.883Z,2.37
2022-11-09T21:41:24.898Z,2.20
2022-11-09T21:43:55.865Z,1.83
2022-11-09T21:46:23.662Z,2.10
2022-11-09T21:48:51.107Z,2.10
2022-11-09T21:51:18.209Z,2.10
2022-11-09T21:53:45.321Z,2.20
2022-11-09T21:56:12.943Z,2.33
2022-11-09T21:58:40.099Z,2.47
2022-11-09T22:01:09.645Z,2.60
2022-11-09T22:03:37.352Z,2.57
2022-11-09T22:06:05.029Z,2.50
2022-11-09T22:08:32.152Z,2.53
2022-11-09T22:11:16.993Z,2.30
2022-11-09T22:14:02.984Z,2.50
2022-11-09T22:16:34.442Z,2.47
2022-11-09T22:19:23.199Z,2.67
2022-11-09T22:21:50.310Z,2.47
2022-11-09T22:24:17.489Z,2.53
2022-11-09T22:26:44.595Z,2.70
2022-11-09T22:29:11.887Z,2.73
2022-11-09T22:31:39.037Z,2.80
2022-11-09T22:34:06.133Z,2.63
2022-11-09T22:36:33.264Z,2.40
2022-11-09T22:39:00.329Z,2.57
2022-11-09T22:41:27.473Z,2.23
2022-11-09T22:43:56.483Z,2.30
2022-11-09T22:46:23.612Z,2.60
2022-11-09T22:48:50.747Z,2.60
2022-11-09T22:51:18.440Z,2.80
2022-11-09T22:53:49.653Z,2.50
2022-11-09T22:56:17.551Z,2.70
2022-11-09T22:58:47.867Z,2.50
2022-11-09T23:01:16.440Z,2.50
2022-11-09T23:03:43.904Z,2.40
2022-11-09T23:06:12.184Z,2.37
2022-11-09T23:08:39.316Z,2.60
2022-11-09T23:11:07.244Z,2.70
2022-11-09T23:13:35.089Z,2.40
2022-11-09T23:16:03.387Z,2.53
2022-11-09T23:18:49.190Z,2.50
2022-11-09T23:21:16.551Z,3.33
2022-11-09T23:23:43.840Z,2.40
2022-11-09T23:26:11.489Z,2.30
2022-11-09T23:28:38.951Z,2.47
2022-11-09T23:31:07.623Z,2.40
2022-11-09T23:33:34.719Z,2.80
2022-11-09T23:36:02.457Z,2.80
2022-11-09T23:38:29.524Z,2.60
2022-11-09T23:40:56.602Z,2.40
2022-11-09T23:43:24.055Z,2.50
2022-11-09T23:45:51.289Z,2.60
2022-11-09T23:48:19.035Z,2.67
2022-11-09T23:50:48.086Z,3.00
2022-11-09T23:53:15.242Z,2.50
2022-11-09T23:55:42.334Z,2.67
2022-11-09T23:58:09.486Z,2.83
